TimeMST,TemperatureF,Dew PointF,Humidity,Sea Level PressureIn,VisibilityMPH,Wind Direction,Wind SpeedMPH,Gust SpeedMPH,PrecipitationIn,Events,Conditions,WindDirDegrees,DateUTC
12:53 AM,30.9,19.9,64,30.39,10.0,WSW,19.6,-,N/A,,Mostly Cloudy,250,2013-02-15 07:53:00
1:53 AM,30.9,21.0,67,30.39,10.0,WSW,19.6,-,N/A,,Overcast,240,2013-02-15 08:53:00
2:53 AM,30.9,21.0,67,30.39,10.0,WSW,17.3,-,N/A,,Overcast,240,2013-02-15 09:53:00
3:53 AM,30.9,19.0,61,30.39,10.0,WSW,17.3,-,N/A,,Overcast,240,2013-02-15 10:53:00
4:53 AM,30.9,19.0,61,30.40,10.0,WSW,15.0,-,N/A,,Overcast,240,2013-02-15 11:53:00
5:53 AM,30.0,19.9,66,30.43,10.0,WSW,16.1,-,N/A,,Overcast,250,2013-02-15 12:53:00
6:53 AM,30.9,19.9,64,30.44,10.0,WSW,13.8,-,N/A,,Overcast,250,2013-02-15 13:53:00
7:53 AM,30.0,19.9,66,30.45,10.0,West,17.3,-,N/A,,Partly Cloudy,260,2013-02-15 14:53:00
8:53 AM,30.9,19.0,61,30.44,10.0,West,16.1,-,N/A,,Clear,270,2013-02-15 15:53:00
9:53 AM,36.0,19.9,52,30.43,10.0,WSW,18.4,28.8,N/A,,Clear,250,2013-02-15 16:53:00
10:53 AM,37.0,21.0,52,30.39,10.0,West,24.2,28.8,N/A,,Clear,260,2013-02-15 17:53:00
11:53 AM,37.9,21.0,51,30.37,10.0,West,25.3,31.1,N/A,,Clear,260,2013-02-15 18:53:00
12:53 PM,39.9,21.9,49,30.34,10.0,WSW,25.3,31.1,N/A,,Clear,240,2013-02-15 19:53:00
1:53 PM,43.0,21.0,42,30.32,10.0,West,26.5,32.2,N/A,,Clear,270,2013-02-15 20:53:00
2:53 PM,45.0,19.9,37,30.30,10.0,West,19.6,28.8,N/A,,Clear,260,2013-02-15 21:53:00
3:53 PM,46.0,19.9,35,30.28,10.0,West,19.6,31.1,N/A,,Clear,260,2013-02-15 22:53:00
4:53 PM,44.1,19.0,37,30.28,10.0,West,18.4,-,N/A,,Clear,260,2013-02-15 23:53:00
5:53 PM,39.9,19.9,45,30.29,10.0,West,18.4,-,N/A,,Clear,260,2013-02-16 00:53:00
6:53 PM,41.0,19.9,43,30.27,10.0,WSW,20.7,29.9,N/A,,Clear,240,2013-02-16 01:53:00
7:53 PM,39.0,19.9,46,30.27,10.0,SW,27.6,38.0,N/A,,Clear,220,2013-02-16 02:53:00
8:53 PM,37.9,19.9,48,30.28,10.0,West,27.6,35.7,N/A,,Clear,260,2013-02-16 03:53:00
9:53 PM,37.9,19.0,47,30.26,10.0,WSW,33.4,49.5,N/A,,Clear,240,2013-02-16 04:53:00
10:53 PM,37.0,19.0,48,30.25,10.0,WSW,36.8,52.9,N/A,,Clear,240,2013-02-16 05:53:00
11:53 PM,36.0,19.0,50,30.22,10.0,West,29.9,40.3,N/A,,Clear,260,2013-02-16 06:53:00